Welcome to Northern Hawkes Bay. New Zealand.
PWS Header
      nz Flag



Hit Counter


W3C Valid W3C Valid logo


    Wairoa

Select any of the Stations below to visit their websites.










Historic Data from Weather Underground
Select the location of interest below. Wairoa is the default. Please have patience, this Data is slow to load in.
Northern Hawkes Bay Historical Data
Daily Summary for March 15, 2017 Units:  Metric    English   Both
« Previous Day
Next Day »
Daily Weekly Monthly Yearly Custom
  High: Low: Average:
Temperature: 17.1 °C 12.8 °C 15.1 °C
Dew Point: 13.9 °C 10.0 °C 11.8 °C
Humidity: 95% 65% 81%
Wind Speed: 41.7km/h 9.7km/h 22.5km/h
Wind Gust: 57.6km/h - -
Wind- - SW
Pressure: 1027.7 hPa 1020.5 hPa -
Precipitation: 3.3 mm    
Historical Graphs
 
 
Tabular Data for March 15, 2017
Time Temperature Dew Point Pressure Wind Wind Speed Wind Gust Humidity Rainfall Rate (Hourly) solar
00:03 13.9 °C 11.1 °C 1020.5 hPa WSW 25.6 km/h 36.7 km/h 83% 0.3 mm 0 W/m2
00:08 14.1 °C 10.7 °C 1020.9 hPa SW 18.3 km/h 36.7 km/h 80% 0.3 mm 0 W/m2
00:13 14.1 °C 10.7 °C 1020.9 hPa SW 19.5 km/h 37.8 km/h 80% 0.3 mm 0 W/m2
00:18 14.1 °C 10.3 °C 1020.5 hPa SW 18.3 km/h 41.7 km/h 78% 0.3 mm 0 W/m2
00:23 14.1 °C 10.5 °C 1020.9 hPa WSW 18.3 km/h 41.7 km/h 79% 0.3 mm 0 W/m2
00:28 14.1 °C 10.3 °C 1020.9 hPa WSW 14.8 km/h 41.7 km/h 78% 0.3 mm 0 W/m2
00:33 14.1 °C 10.5 °C 1020.5 hPa WSW 12.2 km/h 35.6 km/h 79% 0.3 mm 0 W/m2
00:49 14.1 °C 10.1 °C 1020.9 hPa SW 23.3 km/h 39.3 km/h 77% 0.0 mm 0 W/m2
00:54 14.1 °C 10.1 °C 1020.9 hPa SW 19.5 km/h 39.3 km/h 77% 0.0 mm 0 W/m2
00:59 14.2 °C 10.4 °C 1020.5 hPa SW 27.0 km/h 36.7 km/h 78% 0.0 mm 0 W/m2
01:04 14.3 °C 10.5 °C 1020.5 hPa WSW 24.5 km/h 45.4 km/h 78% 0.0 mm 0 W/m2
01:09 14.3 °C 10.5 °C 1020.9 hPa WSW 29.4 km/h 45.4 km/h 78% 0.0 mm 0 W/m2
01:14 14.2 °C 10.2 °C 1020.9 hPa SW 20.9 km/h 37.8 km/h 77% 0.0 mm 0 W/m2
01:19 14.2 °C 10.4 °C 1020.5 hPa SW 20.9 km/h 37.8 km/h 78% 0.0 mm 0 W/m2
01:24 14.2 °C 10.2 °C 1020.9 hPa SW 21.9 km/h 36.7 km/h 77% 0.0 mm 0 W/m2
01:29 14.2 °C 10.2 °C 1020.5 hPa SW 21.9 km/h 36.7 km/h 77% 0.0 mm 0 W/m2
01:34 14.2 °C 10.4 °C 1020.9 hPa SW 23.3 km/h 35.6 km/h 78% 0.0 mm 0 W/m2
01:39 14.2 °C 10.2 °C 1020.9 hPa SW 21.9 km/h 37.8 km/h 77% 0.0 mm 0 W/m2
01:44 14.2 °C 10.4 °C 1020.9 hPa SW 23.3 km/h 37.8 km/h 78% 0.0 mm 0 W/m2
01:49 14.2 °C 10.4 °C 1020.9 hPa WSW 21.9 km/h 36.7 km/h 78% 0.0 mm 0 W/m2
01:54 14.1 °C 10.3 °C 1020.9 hPa SW 23.3 km/h 40.4 km/h 78% 0.0 mm 0 W/m2
01:59 14.1 °C 10.3 °C 1020.9 hPa SW 21.9 km/h 40.4 km/h 78% 0.0 mm 0 W/m2
02:04 14.2 °C 10.6 °C 1020.9 hPa SW 27.0 km/h 40.4 km/h 79% 0.0 mm 0 W/m2
02:09 14.2 °C 10.4 °C 1020.9 hPa WSW 21.9 km/h 39.3 km/h 78% 0.0 mm 0 W/m2
02:19 14.2 °C 10.4 °C 1020.9 hPa SW 19.5 km/h 40.4 km/h 78% 0.0 mm 0 W/m2
02:24 14.2 °C 10.2 °C 1020.9 hPa SW 19.5 km/h 52.6 km/h 77% 0.0 mm 0 W/m2
02:29 14.2 °C 10.2 °C 1020.9 hPa SW 21.9 km/h 52.6 km/h 77% 0.0 mm 0 W/m2
02:34 14.3 °C 10.3 °C 1020.9 hPa SW 24.5 km/h 39.3 km/h 77% 0.0 mm 0 W/m2
02:39 14.2 °C 10.2 °C 1020.9 hPa SW 19.5 km/h 48.9 km/h 77% 0.0 mm 0 W/m2
02:44 14.2 °C 10.1 °C 1021.2 hPa SW 29.4 km/h 48.9 km/h 76% 0.0 mm 0 W/m2
02:49 14.0 °C 10.1 °C 1021.2 hPa SW 19.5 km/h 45.4 km/h 77% 0.0 mm 0 W/m2
02:54 13.9 °C 10.5 °C 1021.2 hPa SW 30.6 km/h 43.9 km/h 80% 0.0 mm 0 W/m2
02:59 13.7 °C 10.3 °C 1021.6 hPa SW 24.5 km/h 41.7 km/h 80% 0.0 mm 0 W/m2
03:04 13.5 °C 10.8 °C 1021.6 hPa SW 20.9 km/h 43.9 km/h 84% 0.0 mm 0 W/m2
03:09 13.0 °C 10.7 °C 1021.2 hPa SW 18.3 km/h 43.9 km/h 86% 0.0 mm 0 W/m2
03:14 12.8 °C 10.9 °C 1021.6 hPa WSW 23.3 km/h 42.8 km/h 88% 0.0 mm 0 W/m2
03:19 12.9 °C 10.9 °C 1021.6 hPa WSW 35.6 km/h 42.8 km/h 88% 0.0 mm 0 W/m2
03:24 13.1 °C 11.0 °C 1021.2 hPa SW 23.3 km/h 43.9 km/h 87% 0.0 mm 0 W/m2
03:29 13.0 °C 10.9 °C 1021.6 hPa SW 30.6 km/h 43.9 km/h 87% 0.0 mm 0 W/m2
03:34 13.1 °C 10.8 °C 1021.6 hPa SW 23.3 km/h 42.8 km/h 86% 0.0 mm 0 W/m2
03:39 13.1 °C 10.8 °C 1021.2 hPa SW 19.5 km/h 42.8 km/h 86% 0.0 mm 0 W/m2
03:44 13.3 °C 10.8 °C 1021.6 hPa SW 18.3 km/h 42.8 km/h 85% 0.0 mm 0 W/m2
03:49 13.2 °C 10.7 °C 1021.6 hPa SW 28.0 km/h 47.9 km/h 85% 0.0 mm 0 W/m2
03:54 13.1 °C 10.8 °C 1021.6 hPa SW 20.9 km/h 47.9 km/h 86% 0.0 mm 0 W/m2
03:59 13.1 °C 10.8 °C 1021.6 hPa SW 28.0 km/h 45.4 km/h 86% 0.0 mm 0 W/m2
04:04 13.2 °C 10.9 °C 1021.6 hPa SW 31.7 km/h 43.9 km/h 86% 0.3 mm 0 W/m2
04:09 13.0 °C 10.7 °C 1021.6 hPa SW 28.0 km/h 43.9 km/h 86% 0.3 mm 0 W/m2
04:14 13.0 °C 11.1 °C 1021.6 hPa SW 30.6 km/h 42.8 km/h 88% 0.3 mm 0 W/m2
04:19 12.8 °C 11.1 °C 1021.6 hPa SW 29.4 km/h 41.7 km/h 89% 0.3 mm 0 W/m2
04:24 12.8 °C 10.5 °C 1021.6 hPa WSW 21.9 km/h 41.7 km/h 86% 0.3 mm 0 W/m2
04:29 12.9 °C 10.6 °C 1021.6 hPa SW 19.5 km/h 45.4 km/h 86% 0.3 mm 0 W/m2
04:34 13.1 °C 10.8 °C 1021.6 hPa SW 25.6 km/h 45.4 km/h 86% 0.3 mm 0 W/m2
04:39 13.5 °C 11.2 °C 1021.6 hPa SW 24.5 km/h 40.4 km/h 86% 0.3 mm 0 W/m2
04:44 13.7 °C 11.2 °C 1021.2 hPa SW 23.3 km/h 39.3 km/h 85% 0.3 mm 0 W/m2
04:49 13.8 °C 10.9 °C 1021.2 hPa SW 29.4 km/h 42.8 km/h 83% 0.5 mm 0 W/m2
04:54 14.0 °C 11.2 °C 1021.2 hPa SW 25.6 km/h 48.9 km/h 83% 0.5 mm 0 W/m2
04:59 13.9 °C 11.1 °C 1021.2 hPa SW 27.0 km/h 48.9 km/h 83% 0.5 mm 0 W/m2
05:04 14.0 °C 10.8 °C 1021.2 hPa SW 20.9 km/h 46.5 km/h 81% 0.3 mm 0 W/m2
05:09 14.0 °C 11.0 °C 1021.2 hPa SW 19.5 km/h 41.7 km/h 82% 0.3 mm 0 W/m2
05:14 13.9 °C 11.4 °C 1021.2 hPa SW 19.5 km/h 40.4 km/h 85% 0.3 mm 0 W/m2
05:19 14.2 °C 11.6 °C 1021.2 hPa SW 23.3 km/h 36.7 km/h 84% 0.3 mm 0 W/m2
05:24 14.6 °C 11.8 °C 1021.2 hPa SW 28.0 km/h 39.3 km/h 83% 0.3 mm 0 W/m2
05:29 14.8 °C 11.8 °C 1021.6 hPa SSW 25.6 km/h 47.9 km/h 82% 0.3 mm 0 W/m2
05:34 14.3 °C 11.1 °C 1021.2 hPa SSW 28.0 km/h 47.9 km/h 81% 0.3 mm 0 W/m2
05:39 13.9 °C 11.2 °C 1021.2 hPa SW 25.6 km/h 43.9 km/h 84% 0.3 mm 0 W/m2
05:44 14.0 °C 11.3 °C 1021.6 hPa SW 23.3 km/h 37.8 km/h 84% 0.3 mm 0 W/m2
05:49 13.6 °C 11.3 °C 1021.6 hPa SW 18.3 km/h 45.4 km/h 86% 0.0 mm 0 W/m2
05:54 13.8 °C 12.4 °C 1021.6 hPa SW 33.1 km/h 50.0 km/h 91% 0.3 mm 0 W/m2
05:59 14.0 °C 12.4 °C 1021.6 hPa SW 24.5 km/h 50.0 km/h 90% 0.3 mm 0 W/m2
06:04 14.0 °C 12.4 °C 1021.6 hPa SSW 23.3 km/h 51.5 km/h 90% 0.3 mm 0 W/m2
06:09 14.3 °C 12.7 °C 1021.6 hPa South 21.9 km/h 51.5 km/h 90% 0.3 mm 0 W/m2
06:14 14.3 °C 12.3 °C 1021.2 hPa SSW 24.5 km/h 51.5 km/h 88% 0.3 mm 0 W/m2
06:19 14.7 °C 12.2 °C 1021.6 hPa SW 36.7 km/h 57.6 km/h 85% 0.3 mm 0 W/m2
06:24 14.7 °C 12.2 °C 1021.6 hPa SSW 24.5 km/h 57.6 km/h 85% 0.3 mm 0 W/m2
06:29 14.4 °C 12.4 °C 1021.6 hPa SSW 20.9 km/h 57.6 km/h 88% 0.3 mm 0 W/m2
06:34 14.2 °C 12.4 °C 1021.6 hPa SW 30.6 km/h 48.9 km/h 89% 0.3 mm 0 W/m2
06:40 14.4 °C 12.6 °C 1021.6 hPa SW 34.3 km/h 48.9 km/h 89% 0.3 mm 0 W/m2
06:45 14.6 °C 13.0 °C 1021.6 hPa SW 21.9 km/h 48.9 km/h 90% 0.3 mm 0 W/m2
06:50 14.8 °C 12.8 °C 1021.6 hPa SW 23.3 km/h 48.9 km/h 88% 0.3 mm 0 W/m2
06:56 14.9 °C 12.8 °C 1021.6 hPa SSW 25.6 km/h 48.9 km/h 87% 0.0 mm 0 W/m2
07:01 14.8 °C 12.7 °C 1021.9 hPa SSW 33.1 km/h 51.5 km/h 87% 0.0 mm 0 W/m2
07:06 14.7 °C 12.7 °C 1021.6 hPa SSW 27.0 km/h 51.5 km/h 88% 0.0 mm 0 W/m2
07:09 15.0 °C 12.8 °C 1021.6 hPa SSW 21.9 km/h 50.0 km/h 87% 0.0 mm 0 W/m2
07:14 15.3 °C 12.8 °C 1021.6 hPa SSW 37.8 km/h 57.6 km/h 85% 0.0 mm 0 W/m2
07:19 15.3 °C 13.0 °C 1021.9 hPa SSW 27.0 km/h 57.6 km/h 86% 0.0 mm 0 W/m2
07:24 15.1 °C 12.6 °C 1022.2 hPa SSW 24.5 km/h 57.6 km/h 85% 0.0 mm 2 W/m2
07:29 15.1 °C 12.8 °C 1022.2 hPa SW 19.5 km/h 51.5 km/h 86% 0.0 mm 2 W/m2
07:34 14.7 °C 12.7 °C 1022.2 hPa SW 23.3 km/h 40.4 km/h 88% 0.0 mm 2 W/m2
07:39 14.4 °C 12.6 °C 1022.2 hPa WSW 27.0 km/h 48.9 km/h 89% 0.0 mm 2 W/m2
07:44 14.4 °C 12.6 °C 1022.2 hPa WSW 19.5 km/h 48.9 km/h 89% 0.0 mm 3 W/m2
07:49 14.6 °C 13.0 °C 1022.2 hPa SW 31.7 km/h 43.9 km/h 90% 0.0 mm 7 W/m2
07:54 14.6 °C 12.8 °C 1022.6 hPa SW 33.1 km/h 50.0 km/h 89% 0.0 mm 7 W/m2
07:59 14.6 °C 13.0 °C 1022.2 hPa SW 17.2 km/h 50.0 km/h 90% 0.0 mm 9 W/m2
08:04 14.8 °C 13.2 °C 1022.6 hPa SW 34.3 km/h 54.1 km/h 90% 0.0 mm 10 W/m2
08:09 15.0 °C 12.5 °C 1022.6 hPa SSW 34.3 km/h 54.1 km/h 85% 0.3 mm 20 W/m2
08:14 15.2 °C 12.7 °C 1022.6 hPa SSW 41.7 km/h 50.0 km/h 85% 0.3 mm 13 W/m2
08:19 15.3 °C 12.8 °C 1022.6 hPa SSW 29.4 km/h 54.1 km/h 85% 0.3 mm 15 W/m2
08:24 15.1 °C 12.9 °C 1022.6 hPa SSW 34.3 km/h 54.1 km/h 87% 0.5 mm 57 W/m2
08:29 15.2 °C 12.7 °C 1022.6 hPa SSW 37.8 km/h 51.5 km/h 85% 0.5 mm 23 W/m2
08:34 15.0 °C 12.5 °C 1022.6 hPa South 28.0 km/h 51.5 km/h 85% 0.5 mm 37 W/m2
08:39 15.0 °C 13.2 °C 1022.9 hPa SSW 21.9 km/h 52.6 km/h 89% 0.5 mm 53 W/m2
08:44 14.6 °C 13.0 °C 1022.9 hPa SSW 20.9 km/h 52.6 km/h 90% 0.5 mm 34 W/m2
08:49 14.2 °C 12.9 °C 1022.9 hPa SSW 19.5 km/h 40.4 km/h 92% 0.5 mm 65 W/m2
08:54 14.1 °C 13.2 °C 1022.9 hPa SW 21.9 km/h 40.4 km/h 94% 0.5 mm 51 W/m2
08:59 14.2 °C 13.4 °C 1023.2 hPa WSW 33.1 km/h 47.9 km/h 95% 0.5 mm 121 W/m2
09:04 14.5 °C 13.6 °C 1022.9 hPa SW 29.4 km/h 47.9 km/h 94% 0.5 mm 143 W/m2
09:09 15.4 °C 13.4 °C 1023.2 hPa SW 30.6 km/h 47.9 km/h 88% 0.3 mm 414 W/m2
09:14 15.8 °C 13.1 °C 1023.2 hPa SSW 27.0 km/h 56.2 km/h 84% 0.3 mm 169 W/m2
09:19 15.9 °C 13.2 °C 1023.6 hPa South 28.0 km/h 56.2 km/h 84% 0.3 mm 374 W/m2
09:24 16.2 °C 13.1 °C 1023.9 hPa SSE 27.0 km/h 57.6 km/h 82% 0.0 mm 144 W/m2
09:29 15.4 °C 12.6 °C 1023.9 hPa South 23.3 km/h 57.6 km/h 83% 0.0 mm 98 W/m2
09:34 15.5 °C 13.2 °C 1023.9 hPa South 23.3 km/h 47.9 km/h 86% 0.0 mm 97 W/m2
09:39 15.7 °C 12.8 °C 1023.9 hPa SSW 35.6 km/h 51.5 km/h 83% 0.0 mm 194 W/m2
09:44 15.8 °C 13.1 °C 1023.6 hPa SW 23.3 km/h 51.5 km/h 84% 0.0 mm 87 W/m2
09:49 15.6 °C 13.1 °C 1023.6 hPa SW 25.6 km/h 45.4 km/h 85% 0.0 mm 121 W/m2
09:50 15.6 °C 13.1 °C 1023.6 hPa SW 19.5 km/h 45.4 km/h 85% 0.0 mm 109 W/m2
09:56 15.8 °C 12.7 °C 1023.6 hPa SSW 27.0 km/h 51.5 km/h 82% 0.0 mm 79 W/m2
10:01 16.0 °C 12.7 °C 1023.6 hPa SSW 33.1 km/h 52.6 km/h 81% 0.3 mm 119 W/m2
10:06 15.8 °C 12.4 °C 1023.6 hPa SSW 23.3 km/h 52.6 km/h 80% 0.3 mm 130 W/m2
10:11 16.1 °C 12.8 °C 1023.9 hPa SSW 23.3 km/h 51.5 km/h 81% 0.3 mm 164 W/m2
10:16 16.2 °C 12.6 °C 1023.9 hPa SSW 24.5 km/h 47.9 km/h 79% 0.3 mm 95 W/m2
10:21 16.1 °C 12.8 °C 1023.9 hPa SW 23.3 km/h 45.4 km/h 81% 0.3 mm 112 W/m2
10:26 16.0 °C 12.7 °C 1023.9 hPa SSW 33.1 km/h 48.9 km/h 81% 0.3 mm 184 W/m2
10:31 16.3 °C 12.7 °C 1023.9 hPa SSW 34.3 km/h 48.9 km/h 79% 0.3 mm 227 W/m2
10:36 16.3 °C 12.4 °C 1024.3 hPa SSW 33.1 km/h 48.9 km/h 78% 0.3 mm 197 W/m2
10:41 15.7 °C 13.0 °C 1024.3 hPa SSW 21.9 km/h 45.4 km/h 84% 0.3 mm 104 W/m2
10:46 15.6 °C 13.1 °C 1024.3 hPa SW 23.3 km/h 45.4 km/h 85% 0.3 mm 110 W/m2
10:51 15.8 °C 13.4 °C 1024.3 hPa SW 31.7 km/h 55.0 km/h 86% 0.3 mm 257 W/m2
10:56 15.9 °C 13.2 °C 1024.3 hPa SW 24.5 km/h 55.0 km/h 84% 0.3 mm 339 W/m2
11:01 15.7 °C 13.6 °C 1024.6 hPa SSW 21.9 km/h 50.0 km/h 87% 0.0 mm 292 W/m2
11:02 15.7 °C 13.7 °C 1024.6 hPa SSW 21.9 km/h 50.0 km/h 88% 0.0 mm 285 W/m2
11:07 15.7 °C 13.7 °C 1024.6 hPa SW 25.6 km/h 42.8 km/h 88% 0.0 mm 382 W/m2
11:12 15.9 °C 13.9 °C 1024.9 hPa SSW 29.4 km/h 40.4 km/h 88% 0.0 mm 285 W/m2
11:17 16.1 °C 13.2 °C 1024.9 hPa SSW 30.6 km/h 47.9 km/h 83% 0.0 mm 360 W/m2
11:22 15.7 °C 13.0 °C 1024.9 hPa SSW 24.5 km/h 47.9 km/h 84% 0.0 mm 199 W/m2
11:27 15.1 °C 12.9 °C 1024.9 hPa SSW 20.9 km/h 47.9 km/h 87% 0.0 mm 268 W/m2
11:32 15.5 °C 13.6 °C 1024.6 hPa SSW 19.5 km/h 40.4 km/h 88% 0.0 mm 156 W/m2
11:37 15.6 °C 13.4 °C 1024.9 hPa SSW 20.9 km/h 40.4 km/h 87% 0.0 mm 160 W/m2
11:42 15.7 °C 13.2 °C 1024.9 hPa SSW 23.3 km/h 40.4 km/h 85% 0.0 mm 112 W/m2
11:47 15.0 °C 12.5 °C 1024.9 hPa South 14.8 km/h 50.0 km/h 85% 0.3 mm 152 W/m2
11:52 14.9 °C 12.9 °C 1024.9 hPa SSW 21.9 km/h 50.0 km/h 88% 0.3 mm 148 W/m2
11:57 15.3 °C 13.3 °C 1024.9 hPa SSW 20.9 km/h 35.6 km/h 88% 0.3 mm 165 W/m2
12:02 15.5 °C 13.0 °C 1024.9 hPa SW 19.5 km/h 46.5 km/h 85% 0.5 mm 154 W/m2
12:07 15.6 °C 12.9 °C 1025.3 hPa SSW 14.8 km/h 46.5 km/h 84% 0.5 mm 89 W/m2
12:12 15.4 °C 12.6 °C 1024.9 hPa South 29.4 km/h 41.7 km/h 83% 0.5 mm 145 W/m2
12:17 15.7 °C 12.1 °C 1024.9 hPa South 27.0 km/h 41.7 km/h 79% 0.5 mm 151 W/m2
12:22 16.1 °C 11.1 °C 1025.3 hPa South 25.6 km/h 42.8 km/h 72% 0.5 mm 243 W/m2
12:27 16.5 °C 11.7 °C 1024.9 hPa SSW 19.5 km/h 42.8 km/h 73% 0.5 mm 196 W/m2
12:32 16.5 °C 11.0 °C 1024.9 hPa SSW 36.7 km/h 47.9 km/h 70% 0.5 mm 152 W/m2
12:37 16.5 °C 11.4 °C 1025.3 hPa SSW 20.9 km/h 47.9 km/h 72% 0.5 mm 144 W/m2
12:42 16.4 °C 11.3 °C 1025.3 hPa SSW 29.4 km/h 47.9 km/h 72% 0.5 mm 153 W/m2
12:47 16.2 °C 11.4 °C 1025.3 hPa SSW 19.5 km/h 45.4 km/h 73% 0.3 mm 183 W/m2
12:52 16.4 °C 11.1 °C 1025.3 hPa SSW 29.4 km/h 46.5 km/h 71% 0.3 mm 173 W/m2
12:57 16.5 °C 10.8 °C 1025.6 hPa SSW 25.6 km/h 46.5 km/h 69% 0.3 mm 156 W/m2
13:02 16.5 °C 10.1 °C 1025.3 hPa SSW 28.0 km/h 45.4 km/h 66% 0.0 mm 161 W/m2
13:07 16.6 °C 10.0 °C 1025.6 hPa SSW 23.3 km/h 45.4 km/h 65% 0.0 mm 214 W/m2
13:12 16.5 °C 10.3 °C 1025.3 hPa South 18.3 km/h 48.9 km/h 67% 0.0 mm 121 W/m2
13:17 16.2 °C 10.1 °C 1025.6 hPa South 17.2 km/h 48.9 km/h 67% 0.0 mm 135 W/m2
13:22 16.4 °C 10.7 °C 1025.6 hPa South 25.6 km/h 41.7 km/h 69% 0.0 mm 148 W/m2
13:27 16.6 °C 10.4 °C 1025.6 hPa SSW 17.2 km/h 41.7 km/h 67% 0.0 mm 156 W/m2
13:32 16.7 °C 10.3 °C 1025.6 hPa SSW 19.5 km/h 41.7 km/h 66% 0.0 mm 186 W/m2
13:37 16.8 °C 10.2 °C 1025.6 hPa SSW 14.8 km/h 46.5 km/h 65% 0.0 mm 212 W/m2
13:42 16.9 °C 10.5 °C 1025.6 hPa SSW 20.9 km/h 46.5 km/h 66% 0.0 mm 219 W/m2
13:47 16.8 °C 11.3 °C 1025.6 hPa SW 15.8 km/h 36.7 km/h 70% 0.0 mm 203 W/m2
13:52 16.3 °C 11.4 °C 1025.6 hPa SW 20.9 km/h 40.4 km/h 73% 0.0 mm 116 W/m2
13:57 15.9 °C 11.9 °C 1025.6 hPa SW 28.0 km/h 43.9 km/h 77% 0.0 mm 112 W/m2
14:02 15.8 °C 11.8 °C 1026.0 hPa SSW 19.5 km/h 43.9 km/h 77% 0.0 mm 124 W/m2
14:07 15.8 °C 11.4 °C 1025.6 hPa SSW 17.2 km/h 43.9 km/h 75% 0.0 mm 193 W/m2
14:12 16.2 °C 11.6 °C 1025.6 hPa SW 21.9 km/h 39.3 km/h 74% 0.0 mm 167 W/m2
14:17 16.2 °C 11.4 °C 1025.6 hPa SW 23.3 km/h 39.3 km/h 73% 0.0 mm 115 W/m2
14:22 15.5 °C 11.5 °C 1025.6 hPa SSW 15.8 km/h 39.3 km/h 77% 0.0 mm 59 W/m2
14:27 15.2 °C 11.9 °C 1025.6 hPa SSW 23.3 km/h 37.8 km/h 81% 0.3 mm 80 W/m2
14:37 15.4 °C 12.6 °C 1026.0 hPa SW 30.6 km/h 50.0 km/h 83% 0.3 mm 166 W/m2
14:47 14.7 °C 12.9 °C 1026.0 hPa SSW 18.3 km/h 41.7 km/h 89% 0.3 mm 235 W/m2
14:52 14.9 °C 13.1 °C 1025.6 hPa SW 18.3 km/h 34.3 km/h 89% 0.3 mm 133 W/m2
14:57 14.9 °C 12.9 °C 1025.6 hPa WSW 14.8 km/h 34.3 km/h 88% 0.3 mm 188 W/m2
15:02 15.6 °C 12.9 °C 1025.6 hPa SW 19.5 km/h 34.3 km/h 84% 0.3 mm 231 W/m2
15:07 16.1 °C 12.4 °C 1025.6 hPa SW 21.9 km/h 45.4 km/h 79% 0.3 mm 190 W/m2
15:12 16.1 °C 12.3 °C 1025.6 hPa SW 28.0 km/h 45.4 km/h 78% 0.3 mm 220 W/m2
15:17 16.1 °C 12.1 °C 1025.6 hPa SW 17.2 km/h 40.4 km/h 77% 0.3 mm 181 W/m2
15:22 16.1 °C 12.4 °C 1025.6 hPa SW 14.8 km/h 41.7 km/h 79% 0.3 mm 129 W/m2
15:27 16.1 °C 12.4 °C 1025.6 hPa WSW 23.3 km/h 41.7 km/h 79% 0.0 mm 137 W/m2
15:32 16.0 °C 12.4 °C 1025.6 hPa SW 20.9 km/h 39.3 km/h 79% 0.0 mm 179 W/m2
15:37 16.0 °C 12.4 °C 1025.6 hPa SSW 15.8 km/h 39.3 km/h 79% 0.0 mm 187 W/m2
15:47 15.9 °C 12.3 °C 1025.6 hPa SW 24.5 km/h 39.3 km/h 79% 0.0 mm 171 W/m2
15:57 16.2 °C 12.0 °C 1025.6 hPa SW 28.0 km/h 39.3 km/h 76% 0.0 mm 142 W/m2
16:02 16.3 °C 11.4 °C 1025.6 hPa SW 19.5 km/h 39.3 km/h 73% 0.0 mm 134 W/m2
16:07 16.6 °C 10.0 °C 1025.6 hPa SSW 17.2 km/h 37.8 km/h 65% 0.0 mm 172 W/m2
16:12 17.1 °C 12.0 °C 1025.6 hPa SSW 12.2 km/h 36.7 km/h 72% 0.0 mm 168 W/m2
16:17 17.0 °C 11.3 °C 1025.6 hPa SSW 24.5 km/h 36.7 km/h 69% 0.0 mm 134 W/m2
16:22 16.4 °C 11.1 °C 1025.3 hPa SSW 23.3 km/h 40.4 km/h 71% 0.0 mm 150 W/m2
16:27 16.3 °C 11.7 °C 1025.6 hPa SSW 27.0 km/h 40.4 km/h 74% 0.0 mm 101 W/m2
16:32 15.9 °C 11.3 °C 1025.6 hPa SSW 19.5 km/h 35.6 km/h 74% 0.0 mm 76 W/m2
16:37 15.3 °C 11.7 °C 1025.6 hPa SSW 27.0 km/h 39.3 km/h 79% 0.0 mm 92 W/m2
16:42 15.0 °C 12.2 °C 1025.6 hPa SSW 9.7 km/h 39.3 km/h 83% 0.0 mm 100 W/m2
16:47 15.2 °C 11.9 °C 1026.0 hPa SSW 20.9 km/h 37.8 km/h 81% 0.0 mm 71 W/m2
16:52 15.0 °C 12.2 °C 1025.6 hPa SSW 13.4 km/h 37.8 km/h 83% 0.0 mm 61 W/m2
17:02 14.5 °C 12.2 °C 1025.6 hPa SSW 15.8 km/h 28.0 km/h 86% 0.3 mm 27 W/m2
17:12 14.9 °C 12.4 °C 1025.6 hPa South 20.9 km/h 42.8 km/h 85% 0.5 mm 79 W/m2
17:17 15.2 °C 12.5 °C 1025.6 hPa South 24.5 km/h 45.4 km/h 84% 0.5 mm 97 W/m2
17:22 15.2 °C 12.7 °C 1025.6 hPa South 28.0 km/h 45.4 km/h 85% 0.5 mm 109 W/m2
17:27 15.1 °C 12.2 °C 1025.6 hPa SSW 24.5 km/h 45.4 km/h 83% 0.5 mm 104 W/m2
17:32 15.2 °C 12.5 °C 1026.0 hPa SSW 21.9 km/h 45.4 km/h 84% 0.5 mm 125 W/m2
17:37 15.3 °C 12.4 °C 1025.6 hPa SSW 17.2 km/h 41.7 km/h 83% 0.5 mm 116 W/m2
17:42 15.8 °C 12.4 °C 1026.0 hPa SW 31.7 km/h 41.7 km/h 80% 0.5 mm 82 W/m2
17:47 15.6 °C 11.6 °C 1026.0 hPa SSW 28.0 km/h 42.8 km/h 77% 0.5 mm 65 W/m2
17:53 15.5 °C 11.7 °C 1026.0 hPa SW 20.9 km/h 42.8 km/h 78% 0.5 mm 54 W/m2
17:58 15.7 °C 12.1 °C 1026.0 hPa SW 24.5 km/h 39.3 km/h 79% 0.3 mm 52 W/m2
18:03 15.8 °C 12.0 °C 1025.6 hPa SW 25.6 km/h 39.3 km/h 78% 0.3 mm 46 W/m2
18:08 15.9 °C 12.1 °C 1026.0 hPa SW 17.2 km/h 39.3 km/h 78% 0.3 mm 41 W/m2
18:13 15.9 °C 11.9 °C 1026.0 hPa SSW 18.3 km/h 39.3 km/h 77% 0.0 mm 44 W/m2
18:18 15.9 °C 11.9 °C 1026.0 hPa SSW 27.0 km/h 42.8 km/h 77% 0.0 mm 48 W/m2
18:23 15.8 °C 12.0 °C 1026.0 hPa SW 18.3 km/h 42.8 km/h 78% 0.0 mm 53 W/m2
18:33 15.7 °C 12.1 °C 1026.0 hPa SSW 24.5 km/h 39.3 km/h 79% 0.0 mm 28 W/m2
18:38 15.7 °C 11.9 °C 1026.3 hPa SSW 21.9 km/h 39.3 km/h 78% 0.0 mm 21 W/m2
18:43 15.7 °C 11.9 °C 1026.3 hPa SW 20.9 km/h 36.7 km/h 78% 0.0 mm 14 W/m2
18:48 15.7 °C 11.9 °C 1026.3 hPa SW 20.9 km/h 40.4 km/h 78% 0.0 mm 9 W/m2
18:53 15.7 °C 11.5 °C 1026.3 hPa SW 19.5 km/h 40.4 km/h 76% 0.0 mm 7 W/m2
18:58 15.7 °C 11.7 °C 1026.3 hPa SW 27.0 km/h 42.8 km/h 77% 0.0 mm 4 W/m2
19:08 15.7 °C 11.5 °C 1026.3 hPa SSW 17.2 km/h 42.8 km/h 76% 0.0 mm 3 W/m2
19:13 15.7 °C 11.5 °C 1026.6 hPa SSW 18.3 km/h 40.4 km/h 76% 0.0 mm 1 W/m2
19:18 15.7 °C 11.5 °C 1026.3 hPa SSW 23.3 km/h 41.7 km/h 76% 0.0 mm 0 W/m2
19:23 15.5 °C 11.3 °C 1026.6 hPa SSW 23.3 km/h 41.7 km/h 76% 0.0 mm 0 W/m2
19:28 15.4 °C 11.2 °C 1026.6 hPa South 29.4 km/h 39.3 km/h 76% 0.0 mm 0 W/m2
19:38 15.7 °C 11.3 °C 1026.6 hPa SW 20.9 km/h 43.9 km/h 75% 0.0 mm 0 W/m2
19:43 15.7 °C 11.3 °C 1026.3 hPa SW 20.9 km/h 43.9 km/h 75% 0.0 mm 0 W/m2
19:48 15.8 °C 11.4 °C 1026.3 hPa SSW 23.3 km/h 39.3 km/h 75% 0.0 mm 0 W/m2
19:53 15.8 °C 11.4 °C 1026.6 hPa SSW 20.9 km/h 36.7 km/h 75% 0.0 mm 0 W/m2
19:58 15.8 °C 11.4 °C 1026.6 hPa SSW 14.8 km/h 40.4 km/h 75% 0.0 mm 0 W/m2
20:03 15.8 °C 11.4 °C 1026.6 hPa SW 21.9 km/h 40.4 km/h 75% 0.0 mm 0 W/m2
20:08 15.7 °C 11.3 °C 1026.6 hPa SSW 18.3 km/h 37.8 km/h 75% 0.0 mm 0 W/m2
20:13 15.7 °C 11.1 °C 1026.6 hPa SW 19.5 km/h 37.8 km/h 74% 0.0 mm 0 W/m2
20:18 15.8 °C 11.2 °C 1026.6 hPa SW 24.5 km/h 37.8 km/h 74% 0.0 mm 0 W/m2
20:23 15.8 °C 11.0 °C 1027.0 hPa SW 17.2 km/h 34.3 km/h 73% 0.0 mm 0 W/m2
20:28 15.9 °C 11.3 °C 1027.0 hPa SW 17.2 km/h 33.1 km/h 74% 0.0 mm 0 W/m2
20:33 16.0 °C 10.9 °C 1027.0 hPa SSW 20.9 km/h 35.6 km/h 72% 0.0 mm 0 W/m2
20:37 16.0 °C 11.2 °C 1027.0 hPa SSW 19.5 km/h 36.7 km/h 73% 0.0 mm 0 W/m2
20:42 15.9 °C 11.5 °C 1027.0 hPa South 13.4 km/h 37.8 km/h 75% 0.0 mm 0 W/m2
20:47 15.9 °C 11.7 °C 1027.0 hPa SSW 20.9 km/h 37.8 km/h 76% 0.0 mm 0 W/m2
20:52 15.9 °C 10.7 °C 1027.0 hPa SSW 19.5 km/h 33.1 km/h 71% 0.0 mm 0 W/m2
20:57 15.7 °C 10.1 °C 1027.0 hPa South 18.3 km/h 34.3 km/h 69% 0.0 mm 0 W/m2
21:02 15.4 °C 11.0 °C 1027.3 hPa SSW 14.8 km/h 34.3 km/h 75% 0.0 mm 0 W/m2
21:07 15.3 °C 11.1 °C 1027.3 hPa SSW 14.8 km/h 25.6 km/h 76% 0.0 mm 0 W/m2
21:12 15.6 °C 11.0 °C 1027.3 hPa SSW 17.2 km/h 24.5 km/h 74% 0.0 mm 0 W/m2
21:17 15.7 °C 10.9 °C 1027.3 hPa SSW 11.1 km/h 31.7 km/h 73% 0.0 mm 0 W/m2
21:22 15.6 °C 11.0 °C 1027.7 hPa SSW 17.2 km/h 31.7 km/h 74% 0.0 mm 0 W/m2
21:27 15.7 °C 11.3 °C 1027.7 hPa SSW 19.5 km/h 30.6 km/h 75% 0.0 mm 0 W/m2
21:32 15.5 °C 11.5 °C 1027.7 hPa SSW 27.0 km/h 33.1 km/h 77% 0.0 mm 0 W/m2
21:37 15.5 °C 11.7 °C 1027.7 hPa South 18.3 km/h 33.1 km/h 78% 0.0 mm 0 W/m2
21:42 15.2 °C 11.8 °C 1027.7 hPa South 18.3 km/h 33.1 km/h 80% 0.0 mm 0 W/m2
21:47 15.1 °C 11.9 °C 1027.7 hPa South 13.4 km/h 25.6 km/h 81% 0.0 mm 0 W/m2
21:52 15.1 °C 12.2 °C 1027.7 hPa South 11.1 km/h 24.5 km/h 83% 0.0 mm 0 W/m2
21:57 15.0 °C 12.2 °C 1027.7 hPa South 9.7 km/h 24.5 km/h 83% 0.0 mm 0 W/m2
22:02 14.9 °C 12.4 °C 1027.7 hPa SSW 12.2 km/h 24.5 km/h 85% 0.0 mm 0 W/m2
22:07 15.1 °C 12.2 °C 1027.7 hPa SSW 9.7 km/h 24.5 km/h 83% 0.0 mm 0 W/m2
22:12 15.2 °C 12.5 °C 1027.3 hPa SSW 15.8 km/h 24.5 km/h 84% 0.0 mm 0 W/m2
22:17 15.1 °C 12.4 °C 1027.7 hPa SSW 9.7 km/h 23.3 km/h 84% 0.0 mm 0 W/m2
22:22 15.3 °C 12.4 °C 1027.7 hPa SW 19.5 km/h 29.4 km/h 83% 0.0 mm 0 W/m2
22:27 15.1 °C 12.4 °C 1027.7 hPa SSW 13.4 km/h 29.4 km/h 84% 0.0 mm 0 W/m2
22:28 15.1 °C 12.4 °C 1027.7 hPa SSW 17.2 km/h 29.4 km/h 84% 0.0 mm 0 W/m2
22:33 15.0 °C 12.5 °C 1027.3 hPa SSW 15.8 km/h 29.4 km/h 85% 0.0 mm 0 W/m2
22:38 15.1 °C 12.6 °C 1027.7 hPa SW 19.5 km/h 34.3 km/h 85% 0.0 mm 0 W/m2
22:43 15.1 °C 12.6 °C 1027.7 hPa SW 15.8 km/h 34.3 km/h 85% 0.0 mm 0 W/m2
22:48 15.0 °C 12.8 °C 1027.7 hPa SW 27.0 km/h 33.1 km/h 87% 0.0 mm 0 W/m2
22:53 14.9 °C 13.1 °C 1027.7 hPa SW 12.2 km/h 33.1 km/h 89% 0.0 mm 0 W/m2
22:58 14.6 °C 12.8 °C 1027.3 hPa SW 15.8 km/h 33.1 km/h 89% 0.0 mm 0 W/m2
23:03 14.7 °C 12.7 °C 1027.3 hPa SW 17.2 km/h 29.4 km/h 88% 0.0 mm 0 W/m2
23:08 14.7 °C 12.6 °C 1027.7 hPa SW 19.5 km/h 29.4 km/h 87% 0.0 mm 0 W/m2
23:13 14.7 °C 12.4 °C 1027.3 hPa SW 19.5 km/h 28.0 km/h 86% 0.0 mm 0 W/m2
23:18 14.7 °C 12.4 °C 1027.3 hPa SW 15.8 km/h 33.1 km/h 86% 0.0 mm 0 W/m2
23:23 14.5 °C 12.4 °C 1027.7 hPa SW 14.8 km/h 33.1 km/h 87% 0.0 mm 0 W/m2
23:28 14.5 °C 12.6 °C 1027.7 hPa WSW 15.8 km/h 24.5 km/h 88% 0.0 mm 0 W/m2
23:33 14.5 °C 12.6 °C 1027.7 hPa SW 15.8 km/h 24.5 km/h 88% 0.0 mm 0 W/m2
23:38 14.4 °C 12.4 °C 1027.7 hPa WSW 18.3 km/h 25.6 km/h 88% 0.0 mm 0 W/m2
23:43 14.4 °C 12.4 °C 1027.7 hPa WSW 13.4 km/h 25.6 km/h 88% 0.0 mm 0 W/m2
23:48 14.3 °C 12.5 °C 1027.7 hPa SW 17.2 km/h 24.5 km/h 89% 0.0 mm 0 W/m2
23:53 14.2 °C 12.2 °C 1027.7 hPa SW 11.1 km/h 27.0 km/h 88% 0.0 mm 0 W/m2
23:58 14.2 °C 12.4 °C 1027.7 hPa SW 14.8 km/h 27.0 km/h 89% 0.0 mm 0 W/m2
Northern Hawkes Bay. New Zealand Historic Data
Compliments of Weather Underground - 2 mb